Aviation Digital Data Service (ADDS)

Output produced by METARs form (1733 UTC 27 May 2017)
found at http://www.aviationweather.gov/adds/metars/
 
OLBA 271700Z 05006KT 9999 SKC 26/13 Q1010
TAF OLBA 271600Z 2718/2824 VRB05KT 8000 FEW026 FEW080 
     BECMG 2809/2812 36014KT 
     BECMG 2821/2824 VRB05KT 
     TEMPO 2718/2824 5000 HZ